createdAt,value
2023-05-02T00:00:02.179Z,100.00
2023-05-02T00:02:33.206Z,100.00
2023-05-02T00:05:01.121Z,100.00
2023-05-02T00:07:29.930Z,100.00
2023-05-02T00:09:58.670Z,100.00
2023-05-02T00:12:26.308Z,100.00
2023-05-02T00:14:53.823Z,100.00
2023-05-02T00:17:21.545Z,100.00
2023-05-02T00:19:49.148Z,100.00
2023-05-02T00:22:16.524Z,100.00
2023-05-02T00:24:43.980Z,100.00
2023-05-02T00:27:11.394Z,100.00
2023-05-02T00:29:39.152Z,100.00
2023-05-02T00:32:07.024Z,100.00
2023-05-02T00:34:34.417Z,100.00
2023-05-02T00:37:01.784Z,100.00
2023-05-02T00:39:29.123Z,100.00
2023-05-02T00:41:58.143Z,100.00
2023-05-02T00:44:25.731Z,100.00
2023-05-02T00:46:53.538Z,100.00
2023-05-02T00:49:20.887Z,100.00
2023-05-02T00:51:51.579Z,100.00
2023-05-02T00:54:19.062Z,100.00
2023-05-02T00:56:48.321Z,100.00
2023-05-02T00:59:16.729Z,100.00
2023-05-02T01:01:47.695Z,100.00
2023-05-02T01:04:18.031Z,100.00
2023-05-02T01:07:03.603Z,100.00
2023-05-02T01:09:48.050Z,100.00
2023-05-02T01:12:43.022Z,100.00
2023-05-02T01:15:16.358Z,100.00
2023-05-02T01:17:45.911Z,100.00
2023-05-02T01:20:17.532Z,98.73
2023-05-02T01:22:45.321Z,100.00
2023-05-02T01:25:37.823Z,100.00
2023-05-02T01:28:48.239Z,100.00
2023-05-02T01:31:16.392Z,100.00
2023-05-02T01:33:46.225Z,100.00
2023-05-02T01:36:16.384Z,100.00
2023-05-02T01:38:45.570Z,100.00
2023-05-02T01:41:14.374Z,100.00
2023-05-02T01:43:43.008Z,100.00
2023-05-02T01:46:14.416Z,100.00
2023-05-02T01:48:47.185Z,100.00
2023-05-02T01:51:19.381Z,100.00
2023-05-02T01:53:50.207Z,100.00
2023-05-02T01:56:19.377Z,100.00
2023-05-02T01:58:48.363Z,100.00
2023-05-02T02:01:17.240Z,100.00
2023-05-02T02:03:47.433Z,98.69
2023-05-02T02:06:16.255Z,97.84
2023-05-02T02:08:43.843Z,99.53
2023-05-02T02:11:15.833Z,100.00
2023-05-02T02:13:50.868Z,100.00
2023-05-02T02:16:26.162Z,100.00
2023-05-02T02:18:56.467Z,99.37
2023-05-02T02:21:26.948Z,100.00
2023-05-02T02:23:57.883Z,100.00
2023-05-02T02:26:25.400Z,97.54
2023-05-02T02:28:52.806Z,99.99
2023-05-02T02:31:20.998Z,100.00
2023-05-02T02:33:49.412Z,100.00
2023-05-02T02:36:27.910Z,100.00
2023-05-02T02:39:18.057Z,100.00
2023-05-02T02:42:14.236Z,100.00
2023-05-02T02:44:52.595Z,100.00
2023-05-02T02:47:41.369Z,100.00
2023-05-02T02:50:16.717Z,100.00
2023-05-02T02:52:59.005Z,100.00
2023-05-02T02:55:45.086Z,100.00
2023-05-02T02:58:43.596Z,100.00
2023-05-02T03:01:20.280Z,100.00
2023-05-02T03:03:49.585Z,100.00
2023-05-02T03:06:20.871Z,100.00
2023-05-02T03:08:48.503Z,99.30
2023-05-02T03:11:22.637Z,100.00
2023-05-02T03:13:50.030Z,100.00
2023-05-02T03:16:40.334Z,100.00
2023-05-02T03:19:11.786Z,100.00
2023-05-02T03:21:39.490Z,100.00
2023-05-02T03:24:13.540Z,100.00
2023-05-02T03:26:41.199Z,100.00
2023-05-02T03:29:11.155Z,100.00
2023-05-02T03:31:42.233Z,100.00
2023-05-02T03:34:10.046Z,100.00
2023-05-02T03:36:38.863Z,100.00
2023-05-02T03:39:06.830Z,100.00
2023-05-02T03:41:34.254Z,100.00
2023-05-02T03:44:06.944Z,100.00
2023-05-02T03:46:34.856Z,100.00
2023-05-02T03:49:08.372Z,100.00
2023-05-02T03:51:36.204Z,100.00
2023-05-02T03:54:04.185Z,100.00
2023-05-02T03:56:32.636Z,100.00
2023-05-02T03:59:12.125Z,100.00
2023-05-02T04:01:39.559Z,100.00
2023-05-02T04:04:07.842Z,100.00
2023-05-02T04:06:43.560Z,100.00
2023-05-02T04:09:11.408Z,100.00
2023-05-02T04:11:49.286Z,100.00
2023-05-02T04:14:17.031Z,100.00
2023-05-02T04:16:50.043Z,100.00
2023-05-02T04:19:22.048Z,100.00
2023-05-02T04:21:49.710Z,100.00
2023-05-02T04:24:17.520Z,100.00
2023-05-02T04:26:47.578Z,100.00
2023-05-02T04:29:15.627Z,100.00
2023-05-02T04:31:43.452Z,100.00
2023-05-02T04:34:12.188Z,100.00
2023-05-02T04:36:46.689Z,100.00
2023-05-02T04:39:18.894Z,100.00
2023-05-02T04:41:56.328Z,100.00
2023-05-02T04:44:26.745Z,100.00
2023-05-02T04:46:55.455Z,100.00
2023-05-02T04:49:23.056Z,100.00
2023-05-02T04:51:53.429Z,100.00
2023-05-02T04:54:22.796Z,100.00
2023-05-02T04:56:53.488Z,100.00
2023-05-02T04:59:21.786Z,100.00
2023-05-02T05:01:53.254Z,100.00
2023-05-02T05:04:20.691Z,100.00
2023-05-02T05:06:49.321Z,100.00
2023-05-02T05:09:17.156Z,100.00
2023-05-02T05:11:46.191Z,100.00
2023-05-02T05:14:16.033Z,100.00
2023-05-02T05:16:47.408Z,100.00
2023-05-02T05:19:15.175Z,100.00
2023-05-02T05:21:42.544Z,100.00
2023-05-02T05:24:10.220Z,100.00
2023-05-02T05:26:38.152Z,100.00
2023-05-02T05:29:08.377Z,100.00
2023-05-02T05:31:41.945Z,100.00
2023-05-02T05:34:10.992Z,100.00
2023-05-02T05:36:40.491Z,100.00
2023-05-02T05:39:08.217Z,100.00
2023-05-02T05:41:38.267Z,100.00
2023-05-02T05:44:08.567Z,100.00
2023-05-02T05:46:36.170Z,100.00
2023-05-02T05:49:04.831Z,100.00
2023-05-02T05:51:32.300Z,100.00
2023-05-02T05:54:00.830Z,100.00
2023-05-02T05:56:28.816Z,100.00
2023-05-02T05:59:07.515Z,100.00
2023-05-02T06:01:35.903Z,100.00
2023-05-02T06:04:06.542Z,100.00
2023-05-02T06:06:36.769Z,100.00
2023-05-02T06:09:04.352Z,100.00
2023-05-02T06:11:33.110Z,100.00
2023-05-02T06:14:00.625Z,100.00
2023-05-02T06:16:28.115Z,100.00
2023-05-02T06:18:55.736Z,100.00
2023-05-02T06:21:23.102Z,100.00
2023-05-02T06:23:50.482Z,100.00
2023-05-02T06:26:17.812Z,100.00
2023-05-02T06:28:45.206Z,100.00
2023-05-02T06:31:12.712Z,100.00
2023-05-02T06:33:41.024Z,100.00
2023-05-02T06:36:08.348Z,100.00
2023-05-02T06:38:36.084Z,100.00
2023-05-02T06:41:03.482Z,100.00
2023-05-02T06:43:30.944Z,100.00
2023-05-02T06:45:58.830Z,100.00
2023-05-02T06:48:26.300Z,100.00
2023-05-02T06:50:54.349Z,100.00
2023-05-02T06:53:21.751Z,100.00
2023-05-02T06:55:49.755Z,100.00
2023-05-02T06:58:17.306Z,100.00
2023-05-02T07:00:48.946Z,100.00
2023-05-02T07:03:16.722Z,100.00
2023-05-02T07:05:44.102Z,100.00
2023-05-02T07:08:11.572Z,100.00
2023-05-02T07:10:38.924Z,100.00
2023-05-02T07:13:06.308Z,100.00
2023-05-02T07:15:33.657Z,100.00
2023-05-02T07:18:01.477Z,100.00
2023-05-02T07:20:28.943Z,100.00
2023-05-02T07:22:56.433Z,100.00
2023-05-02T07:25:24.062Z,100.00
2023-05-02T07:27:51.408Z,100.00
2023-05-02T07:30:18.773Z,100.00
2023-05-02T07:32:46.160Z,100.00
2023-05-02T07:35:13.591Z,100.00
2023-05-02T07:37:41.502Z,100.00
2023-05-02T07:40:09.582Z,100.00
2023-05-02T07:42:36.980Z,100.00
2023-05-02T07:45:04.655Z,100.00
2023-05-02T07:47:32.579Z,100.00
2023-05-02T07:50:00.425Z,100.00
2023-05-02T07:52:28.115Z,100.00
2023-05-02T07:54:55.625Z,100.00
2023-05-02T07:57:23.954Z,100.00
2023-05-02T07:59:51.393Z,100.00
2023-05-02T08:02:20.811Z,100.00
2023-05-02T08:04:48.291Z,100.00
2023-05-02T08:07:16.263Z,100.00
2023-05-02T08:09:43.864Z,100.00
2023-05-02T08:12:11.278Z,100.00
2023-05-02T08:14:38.621Z,100.00
2023-05-02T08:17:06.070Z,100.00
2023-05-02T08:19:36.378Z,100.00
2023-05-02T08:22:03.819Z,100.00
2023-05-02T08:24:31.463Z,94.72
2023-05-02T08:26:58.875Z,98.97
2023-05-02T08:29:26.234Z,100.00
2023-05-02T08:31:53.745Z,100.00
2023-05-02T08:34:21.299Z,100.00
2023-05-02T08:36:48.820Z,100.00
2023-05-02T08:39:17.059Z,100.00
2023-05-02T08:41:44.955Z,100.00
2023-05-02T08:44:12.571Z,100.00
2023-05-02T08:46:42.198Z,100.00
2023-05-02T08:49:16.757Z,100.00
2023-05-02T08:51:45.406Z,100.00
2023-05-02T08:54:17.270Z,100.00
2023-05-02T08:56:46.057Z,100.00
2023-05-02T08:59:13.347Z,100.00
2023-05-02T09:01:44.777Z,100.00
2023-05-02T09:04:12.643Z,100.00
2023-05-02T09:06:40.163Z,100.00
2023-05-02T09:09:08.501Z,100.00
2023-05-02T09:11:37.082Z,100.00
2023-05-02T09:14:14.980Z,100.00
2023-05-02T09:16:42.598Z,100.00
2023-05-02T09:19:10.105Z,100.00
2023-05-02T09:21:41.231Z,100.00
2023-05-02T09:24:20.522Z,100.00
2023-05-02T09:26:59.454Z,100.00
2023-05-02T09:29:28.634Z,100.00
2023-05-02T09:31:56.901Z,100.00
2023-05-02T09:34:24.525Z,100.00
2023-05-02T09:36:54.439Z,100.00
2023-05-02T09:39:26.828Z,100.00
2023-05-02T09:41:54.722Z,100.00
2023-05-02T09:44:24.490Z,100.00
2023-05-02T09:46:54.522Z,100.00
2023-05-02T09:49:42.951Z,100.00
2023-05-02T09:52:15.254Z,100.00
2023-05-02T09:54:43.170Z,100.00
2023-05-02T09:57:11.498Z,100.00
2023-05-02T09:59:40.112Z,100.00
2023-05-02T10:02:09.772Z,97.28
2023-05-02T10:04:39.101Z,95.39
2023-05-02T10:07:10.280Z,91.90
2023-05-02T10:09:43.144Z,92.20
2023-05-02T10:14:49.123Z,90.49
2023-05-02T10:17:28.226Z,92.95
2023-05-02T10:20:03.775Z,91.39
2023-05-02T10:22:31.976Z,92.09
2023-05-02T10:25:01.219Z,90.54
2023-05-02T10:27:33.000Z,90.50
2023-05-02T10:30:02.404Z,88.82
2023-05-02T10:32:32.823Z,90.57
2023-05-02T10:35:05.471Z,87.87
2023-05-02T10:37:36.226Z,87.78
2023-05-02T10:40:05.936Z,88.37
2023-05-02T10:42:39.246Z,89.98
2023-05-02T10:45:30.371Z,90.69
2023-05-02T10:48:18.782Z,88.21
2023-05-02T10:50:48.497Z,86.40
2023-05-02T10:53:22.261Z,85.05
2023-05-02T10:56:08.158Z,86.05
2023-05-02T10:58:35.551Z,85.46
2023-05-02T11:01:32.487Z,84.96
2023-05-02T11:04:05.084Z,83.51
2023-05-02T11:06:37.702Z,83.88
2023-05-02T11:09:18.510Z,81.25
2023-05-02T11:11:46.961Z,81.27
2023-05-02T11:14:26.279Z,83.22
2023-05-02T11:16:59.851Z,80.65
2023-05-02T11:19:29.825Z,80.31
2023-05-02T11:22:17.529Z,81.11
2023-05-02T11:24:49.574Z,79.95
2023-05-02T11:27:32.155Z,77.40
2023-05-02T11:30:01.039Z,78.29
2023-05-02T11:32:50.203Z,76.57
2023-05-02T11:35:24.794Z,78.55
2023-05-02T11:37:59.859Z,80.13
2023-05-02T11:40:28.309Z,79.26
2023-05-02T11:42:57.558Z,78.18
2023-05-02T11:45:39.146Z,80.03
2023-05-02T11:48:07.571Z,78.73
2023-05-02T11:50:52.255Z,76.78
2023-05-02T11:53:25.633Z,77.81
2023-05-02T11:55:54.785Z,79.22
2023-05-02T11:58:24.330Z,78.89
2023-05-02T12:00:52.954Z,76.05
2023-05-02T12:03:38.395Z,77.85
2023-05-02T12:06:12.255Z,78.05
2023-05-02T12:08:41.573Z,77.74
2023-05-02T12:11:09.373Z,76.51
2023-05-02T12:13:48.564Z,76.83
2023-05-02T12:16:17.292Z,78.72
2023-05-02T12:18:45.438Z,78.34
2023-05-02T12:21:13.064Z,77.66
2023-05-02T12:23:42.304Z,78.70
2023-05-02T12:26:29.471Z,77.68
2023-05-02T12:28:58.445Z,75.40
2023-05-02T12:31:29.293Z,75.35
2023-05-02T12:33:59.372Z,76.04
2023-05-02T12:36:30.814Z,75.56
2023-05-02T12:38:59.709Z,75.09
2023-05-02T12:41:38.357Z,76.30
2023-05-02T12:44:07.236Z,74.41
2023-05-02T12:46:34.787Z,75.50
2023-05-02T12:49:10.095Z,76.12
2023-05-02T12:51:39.459Z,76.90
2023-05-02T12:54:07.370Z,74.83
2023-05-02T12:56:43.749Z,75.50
2023-05-02T12:59:29.984Z,75.39
2023-05-02T13:02:01.155Z,76.01
2023-05-02T13:04:36.320Z,74.46
2023-05-02T13:07:03.716Z,74.25
2023-05-02T13:09:31.246Z,73.85
2023-05-02T13:11:59.075Z,73.54
2023-05-02T13:14:26.433Z,74.43
2023-05-02T13:16:55.285Z,73.75
2023-05-02T13:19:22.974Z,75.71
2023-05-02T13:21:52.970Z,75.35
2023-05-02T13:24:20.389Z,73.78
2023-05-02T13:26:47.796Z,75.06
2023-05-02T13:29:17.975Z,75.88
2023-05-02T13:31:45.264Z,76.36
2023-05-02T13:34:12.619Z,74.04
2023-05-02T13:36:46.125Z,74.74
2023-05-02T13:39:15.136Z,74.80
2023-05-02T13:41:42.552Z,75.86
2023-05-02T13:44:10.080Z,73.01
2023-05-02T13:46:38.377Z,73.56
2023-05-02T13:49:06.328Z,73.43
2023-05-02T13:51:33.750Z,73.80
2023-05-02T13:54:01.480Z,73.35
2023-05-02T13:56:28.862Z,73.88
2023-05-02T13:58:56.447Z,71.56
2023-05-02T14:01:26.631Z,75.63
2023-05-02T14:03:55.503Z,73.08
2023-05-02T14:06:23.077Z,73.50
2023-05-02T14:08:53.346Z,73.73
2023-05-02T14:11:20.746Z,72.63
2023-05-02T14:13:48.108Z,72.92
2023-05-02T14:16:15.488Z,73.92
2023-05-02T14:18:45.010Z,74.60
2023-05-02T14:21:12.317Z,73.01
2023-05-02T14:23:39.640Z,72.46
2023-05-02T14:26:07.034Z,73.08
2023-05-02T14:28:34.465Z,74.27
2023-05-02T14:31:01.877Z,72.87
2023-05-02T14:33:29.286Z,73.89
2023-05-02T14:35:56.748Z,72.87
2023-05-02T14:38:24.262Z,72.28
2023-05-02T14:40:51.600Z,70.12
2023-05-02T14:43:19.005Z,69.28
2023-05-02T14:45:46.302Z,68.57
2023-05-02T14:48:17.494Z,70.14
2023-05-02T14:50:44.938Z,70.97
2023-05-02T14:53:13.010Z,71.76
2023-05-02T14:55:40.661Z,73.36
2023-05-02T14:58:10.357Z,74.20
2023-05-02T15:00:39.050Z,74.21
2023-05-02T15:03:08.034Z,75.00
2023-05-02T15:05:36.922Z,75.26
2023-05-02T15:08:04.954Z,74.07
2023-05-02T15:10:36.222Z,75.22
2023-05-02T15:13:07.203Z,75.38
2023-05-02T15:15:35.273Z,74.22
2023-05-02T15:18:05.602Z,73.82
2023-05-02T15:20:33.104Z,73.52
2023-05-02T15:23:03.464Z,74.89
2023-05-02T15:25:31.653Z,75.45
2023-05-02T15:27:59.157Z,76.54
2023-05-02T15:30:26.689Z,77.54
2023-05-02T15:32:54.172Z,76.56
2023-05-02T15:35:21.529Z,76.62
2023-05-02T15:37:48.923Z,76.00
2023-05-02T15:40:16.336Z,75.72
2023-05-02T15:42:43.773Z,76.23
2023-05-02T15:45:13.560Z,74.95
2023-05-02T15:47:41.284Z,75.31
2023-05-02T15:50:10.812Z,75.15
2023-05-02T15:52:41.290Z,76.08
2023-05-02T15:55:08.951Z,75.98
2023-05-02T15:57:36.414Z,76.73
2023-05-02T16:00:04.344Z,75.61
2023-05-02T16:02:32.290Z,76.34
2023-05-02T16:05:02.570Z,76.43
2023-05-02T16:07:29.991Z,76.31
2023-05-02T16:09:58.427Z,76.70
2023-05-02T16:12:26.536Z,76.22
2023-05-02T16:14:56.019Z,76.17
2023-05-02T16:17:25.227Z,76.10
2023-05-02T16:19:52.661Z,76.03
2023-05-02T16:22:19.959Z,76.96
2023-05-02T16:24:47.316Z,76.21
2023-05-02T16:27:14.683Z,77.01
2023-05-02T16:29:42.215Z,77.02
2023-05-02T16:32:09.531Z,77.37
2023-05-02T16:34:37.715Z,77.73
2023-05-02T16:37:05.170Z,77.45
2023-05-02T16:39:33.928Z,77.48
2023-05-02T16:42:01.889Z,77.48
2023-05-02T16:44:30.384Z,76.71
2023-05-02T16:46:57.906Z,75.83
2023-05-02T16:49:25.399Z,76.63
2023-05-02T16:51:54.930Z,76.16
2023-05-02T16:54:22.330Z,75.34
2023-05-02T16:56:49.669Z,75.88
2023-05-02T16:59:17.250Z,73.47
2023-05-02T17:01:44.782Z,73.58
2023-05-02T17:04:12.207Z,73.62
2023-05-02T17:06:39.601Z,73.93
2023-05-02T17:09:07.370Z,73.74
2023-05-02T17:11:34.840Z,73.42
2023-05-02T17:14:02.212Z,73.74
2023-05-02T17:16:29.766Z,73.79
2023-05-02T17:18:57.284Z,73.79
2023-05-02T17:21:27.854Z,73.71
2023-05-02T17:23:55.747Z,73.96
2023-05-02T17:26:23.302Z,73.98
2023-05-02T17:28:53.482Z,73.89
2023-05-02T17:31:20.932Z,73.26
2023-05-02T17:33:48.361Z,72.46
2023-05-02T17:36:16.233Z,72.28
2023-05-02T17:38:45.042Z,72.73
2023-05-02T17:41:12.452Z,72.37
2023-05-02T17:43:42.303Z,71.50
2023-05-02T17:46:10.072Z,71.24
2023-05-02T17:48:37.540Z,71.69
2023-05-02T17:51:05.645Z,72.39
2023-05-02T17:53:34.659Z,72.86
2023-05-02T17:56:05.952Z,73.46
2023-05-02T17:58:36.365Z,75.50
2023-05-02T18:01:08.119Z,77.10
2023-05-02T18:03:36.385Z,77.82
2023-05-02T18:06:04.059Z,78.67
2023-05-02T18:08:31.451Z,79.91
2023-05-02T18:10:59.491Z,81.06
2023-05-02T18:13:27.703Z,82.56
2023-05-02T18:15:59.622Z,83.25
2023-05-02T18:18:26.996Z,85.02
2023-05-02T18:20:54.291Z,85.68
2023-05-02T18:23:21.682Z,86.93
2023-05-02T18:25:49.049Z,88.35
2023-05-02T18:28:16.452Z,90.22
2023-05-02T18:30:43.903Z,90.72
2023-05-02T18:33:11.342Z,91.49
2023-05-02T18:35:38.856Z,91.76
2023-05-02T18:38:06.951Z,91.95
2023-05-02T18:40:34.327Z,91.67
2023-05-02T18:43:02.203Z,91.92
2023-05-02T18:45:29.814Z,92.17
2023-05-02T18:47:57.217Z,91.78
2023-05-02T18:50:26.179Z,92.25
2023-05-02T18:52:53.773Z,92.69
2023-05-02T18:55:24.934Z,92.18
2023-05-02T18:57:52.729Z,92.18
2023-05-02T19:00:20.567Z,92.79
2023-05-02T19:02:51.637Z,93.00
2023-05-02T19:05:19.151Z,92.82
2023-05-02T19:07:46.478Z,92.97
2023-05-02T19:10:13.974Z,92.89
2023-05-02T19:12:41.998Z,93.06
2023-05-02T19:15:11.209Z,93.49
2023-05-02T19:17:38.606Z,93.92
2023-05-02T19:20:10.682Z,93.83
2023-05-02T19:22:38.282Z,93.85
2023-05-02T19:25:06.082Z,93.84
2023-05-02T19:27:33.388Z,93.89
2023-05-02T19:30:00.912Z,95.29
2023-05-02T19:32:28.668Z,94.67
2023-05-02T19:34:56.844Z,95.07
2023-05-02T19:37:24.132Z,95.27
2023-05-02T19:39:51.504Z,94.98
2023-05-02T19:42:19.500Z,95.08
2023-05-02T19:44:50.277Z,94.56
2023-05-02T19:47:17.614Z,94.24
2023-05-02T19:49:45.104Z,93.81
2023-05-02T19:52:12.556Z,93.91
2023-05-02T19:54:40.284Z,92.88
2023-05-02T19:57:07.634Z,93.21
2023-05-02T19:59:35.009Z,92.31
2023-05-02T20:02:02.405Z,92.38
2023-05-02T20:04:29.811Z,92.51
2023-05-02T20:06:57.149Z,91.91
2023-05-02T20:09:25.193Z,91.31
2023-05-02T20:11:52.508Z,90.95
2023-05-02T20:14:20.026Z,90.65
2023-05-02T20:16:47.702Z,90.10
2023-05-02T20:19:15.115Z,88.65
2023-05-02T20:21:42.510Z,89.25
2023-05-02T20:24:09.841Z,88.25
2023-05-02T20:26:37.357Z,88.61
2023-05-02T20:29:04.851Z,88.51
2023-05-02T20:31:32.286Z,89.38
2023-05-02T20:34:00.335Z,89.52
2023-05-02T20:36:29.365Z,89.92
2023-05-02T20:38:57.753Z,89.81
2023-05-02T20:41:27.783Z,89.95
2023-05-02T20:43:55.431Z,89.79
2023-05-02T20:46:23.127Z,89.99
2023-05-02T20:48:53.506Z,89.68
2023-05-02T20:51:21.462Z,89.28
2023-05-02T20:53:49.007Z,89.92
2023-05-02T20:56:16.353Z,89.40
2023-05-02T20:58:43.652Z,88.78
2023-05-02T21:01:11.623Z,89.85
2023-05-02T21:03:41.109Z,88.62
2023-05-02T21:06:08.879Z,88.38
2023-05-02T21:08:36.899Z,87.01
2023-05-02T21:11:13.519Z,88.31
2023-05-02T21:13:41.898Z,87.96
2023-05-02T21:16:20.440Z,90.34
2023-05-02T21:18:48.015Z,89.41
2023-05-02T21:21:15.432Z,91.43
2023-05-02T21:23:42.803Z,93.04
2023-05-02T21:26:10.236Z,92.98
2023-05-02T21:28:40.435Z,93.58
2023-05-02T21:31:07.979Z,94.14
2023-05-02T21:33:35.804Z,94.46
2023-05-02T21:36:03.348Z,94.02
2023-05-02T21:38:30.764Z,93.84
2023-05-02T21:41:02.460Z,93.54
2023-05-02T21:43:31.831Z,93.73
2023-05-02T21:45:59.262Z,94.04
2023-05-02T21:48:26.756Z,94.14
2023-05-02T21:50:54.266Z,94.09
2023-05-02T21:53:21.662Z,94.17
2023-05-02T21:55:49.028Z,94.41
2023-05-02T21:58:16.417Z,94.76
2023-05-02T22:00:45.317Z,94.83
2023-05-02T22:03:12.794Z,94.48
2023-05-02T22:05:41.622Z,94.82
2023-05-02T22:08:11.134Z,95.11
2023-05-02T22:10:42.985Z,95.84
2023-05-02T22:13:12.399Z,95.91
2023-05-02T22:15:45.691Z,97.49
2023-05-02T22:18:14.381Z,98.23
2023-05-02T22:20:42.314Z,98.51
2023-05-02T22:23:12.487Z,98.59
2023-05-02T22:25:42.660Z,99.88
2023-05-02T22:28:13.828Z,100.00
2023-05-02T22:30:44.060Z,100.00
2023-05-02T22:33:12.061Z,100.00
2023-05-02T22:35:39.570Z,100.00
2023-05-02T22:38:10.281Z,100.00
2023-05-02T22:40:37.719Z,100.00
2023-05-02T22:43:05.119Z,100.00
2023-05-02T22:45:32.513Z,100.00
2023-05-02T22:47:59.911Z,100.00
2023-05-02T22:50:27.803Z,100.00
2023-05-02T22:52:59.586Z,100.00
2023-05-02T22:55:27.053Z,100.00
2023-05-02T22:57:54.399Z,100.00
2023-05-02T23:00:23.455Z,100.00
2023-05-02T23:02:51.018Z,100.00
2023-05-02T23:05:21.260Z,100.00
2023-05-02T23:07:49.018Z,100.00
2023-05-02T23:10:16.736Z,100.00
2023-05-02T23:12:44.090Z,100.00
2023-05-02T23:15:11.965Z,100.00
2023-05-02T23:17:41.093Z,100.00
2023-05-02T23:20:10.378Z,100.00
2023-05-02T23:22:44.535Z,100.00
2023-05-02T23:25:13.897Z,100.00
2023-05-02T23:27:41.253Z,100.00
2023-05-02T23:30:09.296Z,100.00
2023-05-02T23:32:36.823Z,100.00
2023-05-02T23:35:06.188Z,100.00
2023-05-02T23:37:33.878Z,100.00
2023-05-02T23:40:01.738Z,100.00
2023-05-02T23:42:30.197Z,100.00
2023-05-02T23:44:57.827Z,100.00
2023-05-02T23:47:28.765Z,100.00
2023-05-02T23:49:56.365Z,100.00
2023-05-02T23:52:23.822Z,100.00
2023-05-02T23:54:52.646Z,100.00
2023-05-02T23:57:20.033Z,100.00
2023-05-02T23:59:47.410Z,100.00
